Map

Track Data

SID SEASON NUMBER BASIN SUBBASIN NAME ISO_TIME NATURE LAT LON WMO_WIND WMO_PRES WMO_AGENCY TRACK_TYPE DIST2LAND LANDFALL IFLAG USA_AGENCY USA_ATCF_ID USA_LAT USA_LON USA_RECORD USA_STATUS USA_WIND USA_PRES USA_SSHS USA_R34_NE USA_R34_SE USA_R34_SW USA_R34_NW USA_R50_NE USA_R50_SE USA_R50_SW USA_R50_NW USA_R64_NE USA_R64_SE USA_R64_SW USA_R64_NW USA_POCI USA_ROCI USA_RMW USA_EYE TOKYO_LAT TOKYO_LON TOKYO_GRADE TOKYO_WIND TOKYO_PRES TOKYO_R50_DIR TOKYO_R50_LONG TOKYO_R50_SHORT TOKYO_R30_DIR TOKYO_R30_LONG TOKYO_R30_SHORT TOKYO_LAND CMA_LAT CMA_LON CMA_CAT CMA_WIND CMA_PRES HKO_LAT HKO_LON HKO_CAT HKO_WIND HKO_PRES NEWDELHI_LAT NEWDELHI_LON NEWDELHI_GRADE NEWDELHI_WIND NEWDELHI_PRES NEWDELHI_CI NEWDELHI_DP NEWDELHI_POCI REUNION_LAT REUNION_LON REUNION_TYPE REUNION_WIND REUNION_PRES REUNION_TNUM REUNION_CI REUNION_RMW REUNION_R34_NE REUNION_R34_SE REUNION_R34_SW REUNION_R34_NW REUNION_R50_NE REUNION_R50_SE REUNION_R50_SW REUNION_R50_NW REUNION_R64_NE REUNION_R64_SE REUNION_R64_SW REUNION_R64_NW BOM_LAT BOM_LON BOM_TYPE BOM_WIND BOM_PRES BOM_TNUM BOM_CI BOM_RMW BOM_R34_NE BOM_R34_SE BOM_R34_SW BOM_R34_NW BOM_R50_NE BOM_R50_SE BOM_R50_SW BOM_R50_NW BOM_R64_NE BOM_R64_SE BOM_R64_SW BOM_R64_NW BOM_ROCI BOM_POCI BOM_EYE BOM_POS_METHOD BOM_PRES_METHOD NADI_LAT NADI_LON NADI_CAT NADI_WIND NADI_PRES WELLINGTON_LAT WELLINGTON_LON WELLINGTON_WIND WELLINGTON_PRES DS824_LAT DS824_LON DS824_STAGE DS824_WIND DS824_PRES TD9636_LAT TD9636_LON TD9636_STAGE TD9636_WIND TD9636_PRES TD9635_LAT TD9635_LON TD9635_WIND TD9635_PRES TD9635_ROCI NEUMANN_LAT NEUMANN_LON NEUMANN_CLASS NEUMANN_WIND NEUMANN_PRES MLC_LAT MLC_LON MLC_CLASS MLC_WIND MLC_PRES USA_GUST BOM_GUST BOM_GUST_PER REUNION_GUST REUNION_GUST_PER USA_SEAHGT USA_SEARAD_NE USA_SEARAD_SE USA_SEARAD_SW USA_SEARAD_NW STORM_SPEED STORM_DIR
1924222N23137 1924 26 WP MM NOT_NAMED 1924-08-08 22:00:00 NR 22.8000 137.100 main 1113 1062 __________O___ -1 22.8000 137.100 4 15 306
1924222N23137 1924 26 WP MM NOT_NAMED 1924-08-09 00:00:00 NR 23.1019 136.654 main 1062 977 __________P___ -1 23.1019 136.654 4 15 306
1924222N23137 1924 26 WP MM NOT_NAMED 1924-08-09 03:00:00 NR 23.5592 135.981 main 977 903 __________P___ -1 23.5592 135.981 4 15 307
1924222N23137 1924 26 WP MM NOT_NAMED 1924-08-09 06:00:00 NR 24.0309 135.305 main 903 820 __________P___ -1 24.0309 135.305 4 16 308
1924222N23137 1924 26 WP MM NOT_NAMED 1924-08-09 09:00:00 NR 24.5272 134.627 main 820 791 __________P___ -1 24.5272 134.627 4 16 309
1924222N23137 1924 26 WP MM NOT_NAMED 1924-08-09 10:00:00 NR 24.7000 134.400 main 791 729 __________O___ -1 24.7000 134.400 4 16 311
1924222N23137 1924 26 WP MM NOT_NAMED 1924-08-09 12:00:00 NR 25.0564 133.947 main 729 654 __________P___ -1 25.0564 133.947 4 16 312
1924222N23137 1924 26 WP MM NOT_NAMED 1924-08-09 15:00:00 NR 25.5984 133.286 main 654 580 __________P___ -1 25.5984 133.286 4 16 313
1924222N23137 1924 26 WP MM NOT_NAMED 1924-08-09 18:00:00 NR 26.1152 132.675 main 580 509 __________P___ -1 26.1152 132.675 4 14 314
1924222N23137 1924 26 WP MM NOT_NAMED 1924-08-09 21:00:00 NR 26.5692 132.150 main 512 496 __________P___ -1 26.5692 132.150 4 13 314
1924222N23137 1924 26 WP MM NOT_NAMED 1924-08-09 22:00:00 NR 26.7000 132.000 main 496 469 __________O___ -1 26.7000 132.000 4 10 314
1924222N23137 1924 26 WP MM NOT_NAMED 1924-08-10 00:00:00 NR 26.9089 131.756 main 469 431 __________P___ -1 26.9089 131.756 4 8 314
1924222N23137 1924 26 WP MM NOT_NAMED 1924-08-10 03:00:00 NR 27.1539 131.481 main 431 406 __________P___ -1 27.1539 131.481 4 6 316
1924222N23137 1924 26 WP MM NOT_NAMED 1924-08-10 06:00:00 NR 27.3502 131.270 main 406 392 __________P___ -1 27.3502 131.270 4 5 316
1924222N23137 1924 26 WP MM NOT_NAMED 1924-08-10 09:00:00 NR 27.5347 131.072 main 392 380 __________P___ -1 27.5347 131.072 4 5 316
1924222N23137 1924 26 WP MM NOT_NAMED 1924-08-10 10:00:00 NR 27.6000 131.000 main 380 357 __________O___ -1 27.6000 131.000 4 7 320
1924222N23137 1924 26 WP MM NOT_NAMED 1924-08-10 12:00:00 NR 27.7840 130.838 main 357 323 __________P___ -1 27.7840 130.838 4 7 322
1924222N23137 1924 26 WP MM NOT_NAMED 1924-08-10 15:00:00 NR 28.0670 130.583 main 323 302 __________P___ -1 28.0670 130.583 4 7 319
1924222N23137 1924 26 WP MM NOT_NAMED 1924-08-10 18:00:00 NR 28.3310 130.290 main 303 284 __________P___ -1 28.3310 130.290 4 7 310
1924222N23137 1924 26 WP MM NOT_NAMED 1924-08-10 21:00:00 NR 28.5451 129.936 main 289 278 __________P___ -1 28.5451 129.936 4 8 302
1924222N23137 1924 26 WP MM NOT_NAMED 1924-08-10 22:00:00 NR 28.6000 129.800 main 281 277 __________O___ -1 28.6000 129.800 4 9 292
1924222N23137 1924 26 WP MM NOT_NAMED 1924-08-11 00:00:00 NR 28.7054 129.480 main 281 280 __________P___ -1 28.7054 129.480 4 9 285
1924222N23137 1924 26 WP MM NOT_NAMED 1924-08-11 03:00:00 NR 28.8072 128.938 main 295 295 __________P___ -1 28.8072 128.938 4 10 277
1924222N23137 1924 26 WP MM NOT_NAMED 1924-08-11 06:00:00 NR 28.8272 128.357 main 318 324 __________P___ -1 28.8272 128.357 4 10 267
1924222N23137 1924 26 WP MM NOT_NAMED 1924-08-11 09:00:00 NR 28.7499 127.783 main 362 362 __________P___ -1 28.7499 127.783 4 10 259
1924222N23137 1924 26 WP MM NOT_NAMED 1924-08-11 10:00:00 NR 28.7000 127.600 main 374 374 __________O___ -1 28.7000 127.600 4 10 248
1924222N23137 1924 26 WP MM NOT_NAMED 1924-08-11 12:00:00 NR 28.5580 127.241 main 409 417 __________P___ -1 28.5580 127.241 4 11 240
1924222N23137 1924 26 WP MM NOT_NAMED 1924-08-11 15:00:00 NR 28.2568 126.729 main 467 440 __________P___ -1 28.2568 126.729 4 11 232
1924222N23137 1924 26 WP MM NOT_NAMED 1924-08-11 18:00:00 NR 27.8938 126.273 main 443 420 __________P___ -1 27.8938 126.273 4 10 225
1924222N23137 1924 26 WP MM NOT_NAMED 1924-08-11 21:00:00 NR 27.5189 125.901 main 425 417 __________P___ -1 27.5189 125.901 4 10 220
1924222N23137 1924 26 WP MM NOT_NAMED 1924-08-11 22:00:00 NR 27.4000 125.800 main 422 411 __________O___ -1 27.4000 125.800 4 8 217
1924222N23137 1924 26 WP MM NOT_NAMED 1924-08-12 00:00:00 NR 27.2072 125.636 main 411 406 __________P___ -1 27.2072 125.636 4 7 212
1924222N23137 1924 26 WP MM NOT_NAMED 1924-08-12 03:00:00 NR 26.9314 125.470 main 408 389 __________P___ -1 26.9314 125.470 4 6 203
1924222N23137 1924 26 WP MM NOT_NAMED 1924-08-12 06:00:00 NR 26.6630 125.374 main 389 365 __________P___ -1 26.6630 125.374 4 6 195
1924222N23137 1924 26 WP MM NOT_NAMED 1924-08-12 09:00:00 NR 26.3924 125.316 main 365 361 __________P___ -1 26.3924 125.316 4 6 190
1924222N23137 1924 26 WP MM NOT_NAMED 1924-08-12 10:00:00 NR 26.3000 125.300 main 361 343 __________O___ -1 26.3000 125.300 4 7 195
1924222N23137 1924 26 WP MM NOT_NAMED 1924-08-12 12:00:00 NR 26.0531 125.215 main 343 320 __________P___ -1 26.0531 125.215 4 8 195
1924222N23137 1924 26 WP MM NOT_NAMED 1924-08-12 15:00:00 NR 25.6754 125.107 main 320 303 __________P___ -1 25.6754 125.107 4 7 192
1924222N23137 1924 26 WP MM NOT_NAMED 1924-08-12 18:00:00 NR 25.3471 125.048 main 303 302 __________P___ -1 25.3471 125.048 4 5 184
1924222N23137 1924 26 WP MM NOT_NAMED 1924-08-12 21:00:00 NR 25.1340 125.070 main 312 312 __________P___ -1 25.1340 125.070 4 4 171
1924222N23137 1924 26 WP MM NOT_NAMED 1924-08-12 22:00:00 NR 25.1000 125.100 main 312 312 __________O___ -1 25.1000 125.100 4 3 99
1924222N23137 1924 26 WP MM NOT_NAMED 1924-08-13 00:00:00 NR 25.1141 125.212 main 322 322 __________P___ -1 25.1141 125.212 4 4 64
1924222N23137 1924 26 WP MM NOT_NAMED 1924-08-13 03:00:00 NR 25.2613 125.461 main 353 353 __________P___ -1 25.2613 125.461 4 6 52
1924222N23137 1924 26 WP MM NOT_NAMED 1924-08-13 06:00:00 NR 25.5094 125.770 main 385 385 __________P___ -1 25.5094 125.770 4 8 47
1924222N23137 1924 26 WP MM NOT_NAMED 1924-08-13 09:00:00 NR 25.8021 126.095 main 421 421 __________P___ -1 25.8021 126.095 4 8 45
1924222N23137 1924 26 WP MM NOT_NAMED 1924-08-13 10:00:00 NR 25.9000 126.200 main 433 433 __________O___ -1 25.9000 126.200 4 8 43
1924222N23137 1924 26 WP MM NOT_NAMED 1924-08-13 12:00:00 NR 26.0868 126.393 main 457 457 __________P___ -1 26.0868 126.393 4 8 42
1924222N23137 1924 26 WP MM NOT_NAMED 1924-08-13 15:00:00 NR 26.3803 126.677 main 495 495 __________P___ -1 26.3803 126.677 4 7 41
1924222N23137 1924 26 WP MM NOT_NAMED 1924-08-13 18:00:00 NR 26.6508 126.934 main 525 525 __________P___ -1 26.6508 126.934 4 6 41
1924222N23137 1924 26 WP MM NOT_NAMED 1924-08-13 21:00:00 NR 26.8545 127.144 main 551 561 __________P___ -1 26.8545 127.144 4 5 44
1924222N23137 1924 26 WP MM NOT_NAMED 1924-08-13 22:00:00 NR 26.9000 127.200 main 561 556 __________O___ -1 26.9000 127.200 4 3 57
1924222N23137 1924 26 WP MM NOT_NAMED 1924-08-14 00:00:00 NR 26.9350 127.282 main 556 551 __________P___ -1 26.9350 127.282 4 2 85
1924222N23137 1924 26 WP MM NOT_NAMED 1924-08-14 03:00:00 NR 26.9119 127.354 main 551 551 __________P___ -1 26.9119 127.354 4 1 139
1924222N23137 1924 26 WP MM NOT_NAMED 1924-08-14 06:00:00 NR 26.8316 127.385 main 561 561 __________P___ -1 26.8316 127.385 4 2 167
1924222N23137 1924 26 WP MM NOT_NAMED 1924-08-14 09:00:00 NR 26.7314 127.397 main 571 571 __________P___ -1 26.7314 127.397 4 2 0
1924222N23137 1924 26 WP MM NOT_NAMED 1924-08-14 10:00:00 NR 26.7000 127.400 main 571 571 __________O___ -1 26.7000 127.400 4 1 161
1924222N23137 1924 26 WP MM NOT_NAMED 1924-08-14 12:00:00 NR 26.6667 127.420 main 571 568 __________P___ -1 26.6667 127.420 4 1 160
1924222N23137 1924 26 WP MM NOT_NAMED 1924-08-14 15:00:00 NR 26.6166 127.443 main 568 568 __________P___ -1 26.6166 127.443 4 1 163
1924222N23137 1924 26 WP MM NOT_NAMED 1924-08-14 18:00:00 NR 26.5666 127.464 main 576 575 __________P___ -1 26.5666 127.464 4 1 163
1924222N23137 1924 26 WP MM NOT_NAMED 1924-08-14 21:00:00 NR 26.5167 127.490 main 575 575 __________P___ -1 26.5167 127.490 4 1 147
1924222N23137 1924 26 WP MM NOT_NAMED 1924-08-14 22:00:00 NR 26.5000 127.500 main 575 575 __________O___ -1 26.5000 127.500 4 1 137
1924222N23137 1924 26 WP MM NOT_NAMED 1924-08-15 00:00:00 NR 26.4667 127.528 main 575 572 __________P___ -1 26.4667 127.528 4 1 143
1924222N23137 1924 26 WP MM NOT_NAMED 1924-08-15 03:00:00 NR 26.4167 127.575 main 581 581 __________P___ -1 26.4167 127.575 4 1 140
1924222N23137 1924 26 WP MM NOT_NAMED 1924-08-15 06:00:00 NR 26.3667 127.628 main 581 579 __________P___ -1 26.3667 127.628 4 1 137
1924222N23137 1924 26 WP MM NOT_NAMED 1924-08-15 09:00:00 NR 26.3167 127.682 main 589 589 __________P___ -1 26.3167 127.682 4 1 133
1924222N23137 1924 26 WP MM NOT_NAMED 1924-08-15 10:00:00 NR 26.3000 127.700 main 589 589 __________O___ -1 26.3000 127.700 4 1 137
1924222N23137 1924 26 WP MM NOT_NAMED 1924-08-15 12:00:00 NR 26.2666 127.725 main 589 586 __________P___ -1 26.2666 127.725 4 1 149
1924222N23137 1924 26 WP MM NOT_NAMED 1924-08-15 15:00:00 NR 26.2166 127.763 main 596 596 __________P___ -1 26.2166 127.763 4 1 143
1924222N23137 1924 26 WP MM NOT_NAMED 1924-08-15 18:00:00 NR 26.1666 127.810 main 596 594 __________P___ -1 26.1666 127.810 4 1 137
1924222N23137 1924 26 WP MM NOT_NAMED 1924-08-15 21:00:00 NR 26.1166 127.873 main 604 604 __________P___ -1 26.1166 127.873 4 2 130
1924222N23137 1924 26 WP MM NOT_NAMED 1924-08-15 22:00:00 NR 26.1000 127.900 main 604 604 __________O___ -1 26.1000 127.900 4 2 124
1924222N23137 1924 26 WP MM NOT_NAMED 1924-08-16 00:00:00 NR 26.0588 127.969 main 607 607 __________P___ -1 26.0588 127.969 4 2 121
1924222N23137 1924 26 WP MM NOT_NAMED 1924-08-16 03:00:00 NR 25.9969 128.091 main 613 609 __________P___ -1 25.9969 128.091 4 3 117
1924222N23137 1924 26 WP MM NOT_NAMED 1924-08-16 06:00:00 NR 25.9430 128.225 main 619 612 __________P___ -1 25.9430 128.225 4 3 111
1924222N23137 1924 26 WP MM NOT_NAMED 1924-08-16 09:00:00 NR 25.9066 128.358 main 612 612 __________P___ -1 25.9066 128.358 4 2 105
1924222N23137 1924 26 WP MM NOT_NAMED 1924-08-16 10:00:00 NR 25.9000 128.400 main 612 608 __________O___ -1 25.9000 128.400 4 2 99
1924222N23137 1924 26 WP MM NOT_NAMED 1924-08-16 12:00:00 NR 25.8916 128.465 main 608 605 __________P___ -1 25.8916 128.465 4 2 91
1924222N23137 1924 26 WP MM NOT_NAMED 1924-08-16 15:00:00 NR 25.8978 128.555 main 605 605 __________P___ -1 25.8978 128.555 4 2 78
1924222N23137 1924 26 WP MM NOT_NAMED 1924-08-16 18:00:00 NR 25.9265 128.649 main 605 588 __________P___ -1 25.9265 128.649 4 2 66
1924222N23137 1924 26 WP MM NOT_NAMED 1924-08-16 21:00:00 NR 25.9779 128.758 main 588 588 __________P___ -1 25.9779 128.758 4 2 61
1924222N23137 1924 26 WP MM NOT_NAMED 1924-08-16 22:00:00 NR 26.0000 128.800 main 588 574 __________O___ -1 26.0000 128.800 4 3 60
1924222N23137 1924 26 WP MM NOT_NAMED 1924-08-17 00:00:00 NR 26.0522 128.899 main 574 568 __________P___ -1 26.0522 128.899 4 3 58
1924222N23137 1924 26 WP MM NOT_NAMED 1924-08-17 03:00:00 NR 26.1494 129.068 main 568 542 __________P___ -1 26.1494 129.068 4 4 57
1924222N23137 1924 26 WP MM NOT_NAMED 1924-08-17 06:00:00 NR 26.2583 129.250 main 542 528 __________P___ -1 26.2583 129.250 4 4 57
1924222N23137 1924 26 WP MM NOT_NAMED 1924-08-17 09:00:00 NR 26.3663 129.438 main 528 526 __________P___ -1 26.3663 129.438 4 4 58
1924222N23137 1924 26 WP MM NOT_NAMED 1924-08-17 10:00:00 NR 26.4000 129.500 main 526 513 __________O___ -1 26.4000 129.500 4 4 64
1924222N23137 1924 26 WP MM NOT_NAMED 1924-08-17 12:00:00 NR 26.4505 129.632 main 513 509 __________P___ -1 26.4505 129.632 4 4 68
1924222N23137 1924 26 WP MM NOT_NAMED 1924-08-17 15:00:00 NR 26.5199 129.831 main 509 495 __________P___ -1 26.5199 129.831 4 4 68
1924222N23137 1924 26 WP MM NOT_NAMED 1924-08-17 18:00:00 NR 26.5898 130.014 main 495 482 __________P___ -1 26.5898 130.014 4 3 63
1924222N23137 1924 26 WP MM NOT_NAMED 1924-08-17 21:00:00 NR 26.6696 130.162 main 482 482 __________P___ -1 26.6696 130.162 4 3 57
1924222N23137 1924 26 WP MM NOT_NAMED 1924-08-17 22:00:00 NR 26.7000 130.200 main 482 470 __________O___ -1 26.7000 130.200 4 3 41
1924222N23137 1924 26 WP MM NOT_NAMED 1924-08-18 00:00:00 NR 26.7692 130.261 main 470 459 __________P___ -1 26.7692 130.261 4 3 29
1924222N23137 1924 26 WP MM NOT_NAMED 1924-08-18 03:00:00 NR 26.8856 130.316 main 459 448 __________P___ -1 26.8856 130.316 4 3 11
1924222N23137 1924 26 WP MM NOT_NAMED 1924-08-18 06:00:00 NR 27.0144 130.331 main 448 425 __________P___ -1 27.0144 130.331 4 3 0
1924222N23137 1924 26 WP MM NOT_NAMED 1924-08-18 09:00:00 NR 27.1525 130.312 main 425 425 __________P___ -1 27.1525 130.312 4 3 360
1924222N23137 1924 26 WP MM NOT_NAMED 1924-08-18 10:00:00 NR 27.2000 130.300 main 425 414 __________O___ -1 27.2000 130.300 4 3 0
1924222N23137 1924 26 WP MM NOT_NAMED 1924-08-18 12:00:00 NR 27.2838 130.283 main 414 403 __________P___ -1 27.2838 130.283 4 3 344
1924222N23137 1924 26 WP MM NOT_NAMED 1924-08-18 15:00:00 NR 27.4155 130.233 main 404 382 __________P___ -1 27.4155 130.233 4 3 337
1924222N23137 1924 26 WP MM NOT_NAMED 1924-08-18 18:00:00 NR 27.5629 130.153 main 382 372 __________P___ -1 27.5629 130.153 4 4 333
1924222N23137 1924 26 WP MM NOT_NAMED 1924-08-18 21:00:00 NR 27.7353 130.043 main 374 363 __________P___ -1 27.7353 130.043 4 4 330
1924222N23137 1924 26 WP MM NOT_NAMED 1924-08-18 22:00:00 NR 27.8000 130.000 main 363 352 __________O___ -1 27.8000 130.000 4 5 333
1924222N23137 1924 26 WP MM NOT_NAMED 1924-08-19 00:00:00 NR 27.9437 129.922 main 354 324 __________P___ -1 27.9437 129.922 4 5 333
1924222N23137 1924 26 WP MM NOT_NAMED 1924-08-19 03:00:00 NR 28.1845 129.780 main 324 305 __________P___ -1 28.1845 129.780 4 6 331
1924222N23137 1924 26 WP MM NOT_NAMED 1924-08-19 06:00:00 NR 28.4446 129.602 main 308 285 __________P___ -1 28.4446 129.602 4 6 327
1924222N23137 1924 26 WP MM NOT_NAMED 1924-08-19 09:00:00 NR 28.7116 129.383 main 285 280 __________P___ -1 28.7116 129.383 4 7 323
1924222N23137 1924 26 WP MM NOT_NAMED 1924-08-19 10:00:00 NR 28.8000 129.300 main 280 267 __________O___ -1 28.8000 129.300 4 7 318
1924222N23137 1924 26 WP MM NOT_NAMED 1924-08-19 12:00:00 NR 28.9738 129.118 main 267 255 __________P___ -1 28.9738 129.118 4 7 315
1924222N23137 1924 26 WP MM NOT_NAMED 1924-08-19 15:00:00 NR 29.2278 128.811 main 260 250 __________P___ -1 29.2278 128.811 4 8 312
1924222N23137 1924 26 WP MM NOT_NAMED 1924-08-19 18:00:00 NR 29.4756 128.474 main 250 248 __________P___ -1 29.4756 128.474 4 8 309
1924222N23137 1924 26 WP MM NOT_NAMED 1924-08-19 21:00:00 NR 29.7193 128.120 main 261 254 __________P___ -1 29.7193 128.120 4 8 308
1924222N23137 1924 26 WP MM NOT_NAMED 1924-08-19 22:00:00 NR 29.8000 128.000 main 262 __________O___ -1 29.8000 128.000 7 8 308

Digital Typhoon Data and Search

About IBTrACS Database

This database is a web-friendly format of International Best Track Archive for Climate Stewardship (IBTrACS), a global best track data archive curated by NOAA dating back to 1842.

Updated: 2021-12-03